sensor_id;sensor_type;location;lat;lon;timestamp;P1;durP1;ratioP1;P2;durP2;ratioP2
28252;SDS011;15515;45.588;5.276;2022-07-25T00:00:08;6.65;;;6.05;;
28252;SDS011;15515;45.588;5.276;2022-07-25T00:02:36;9.00;;;5.70;;
28252;SDS011;15515;45.588;5.276;2022-07-25T00:05:03;6.70;;;6.07;;
28252;SDS011;15515;45.588;5.276;2022-07-25T00:07:30;6.60;;;5.78;;
28252;SDS011;15515;45.588;5.276;2022-07-25T00:09:57;7.18;;;6.45;;
28252;SDS011;15515;45.588;5.276;2022-07-25T00:12:26;6.18;;;5.57;;
28252;SDS011;15515;45.588;5.276;2022-07-25T00:14:53;6.60;;;5.90;;
28252;SDS011;15515;45.588;5.276;2022-07-25T00:17:20;7.75;;;6.47;;
28252;SDS011;15515;45.588;5.276;2022-07-25T00:19:47;8.65;;;6.32;;
28252;SDS011;15515;45.588;5.276;2022-07-25T00:22:14;8.55;;;5.70;;
28252;SDS011;15515;45.588;5.276;2022-07-25T00:24:41;7.50;;;5.90;;
28252;SDS011;15515;45.588;5.276;2022-07-25T00:27:08;7.85;;;6.43;;
28252;SDS011;15515;45.588;5.276;2022-07-25T00:29:35;10.90;;;6.95;;
28252;SDS011;15515;45.588;5.276;2022-07-25T00:32:02;8.25;;;6.47;;
28252;SDS011;15515;45.588;5.276;2022-07-25T00:34:29;8.43;;;5.47;;
28252;SDS011;15515;45.588;5.276;2022-07-25T00:36:56;8.77;;;6.03;;
28252;SDS011;15515;45.588;5.276;2022-07-25T00:39:24;7.28;;;6.00;;
28252;SDS011;15515;45.588;5.276;2022-07-25T00:41:51;6.93;;;6.20;;
28252;SDS011;15515;45.588;5.276;2022-07-25T00:44:24;8.30;;;6.65;;
28252;SDS011;15515;45.588;5.276;2022-07-25T00:46:53;7.95;;;7.25;;
28252;SDS011;15515;45.588;5.276;2022-07-25T00:49:21;7.07;;;6.38;;
28252;SDS011;15515;45.588;5.276;2022-07-25T00:51:49;7.78;;;6.82;;
28252;SDS011;15515;45.588;5.276;2022-07-25T00:54:17;7.85;;;6.47;;
28252;SDS011;15515;45.588;5.276;2022-07-25T00:56:44;8.82;;;6.35;;
28252;SDS011;15515;45.588;5.276;2022-07-25T00:59:12;8.95;;;6.57;;
28252;SDS011;15515;45.588;5.276;2022-07-25T01:01:39;7.47;;;6.78;;
28252;SDS011;15515;45.588;5.276;2022-07-25T01:04:07;8.45;;;7.07;;
28252;SDS011;15515;45.588;5.276;2022-07-25T01:06:35;7.93;;;6.63;;
28252;SDS011;15515;45.588;5.276;2022-07-25T01:09:02;7.68;;;6.90;;
28252;SDS011;15515;45.588;5.276;2022-07-25T01:11:29;7.97;;;6.47;;
28252;SDS011;15515;45.588;5.276;2022-07-25T01:13:56;7.80;;;6.82;;
28252;SDS011;15515;45.588;5.276;2022-07-25T01:16:23;9.45;;;7.30;;
28252;SDS011;15515;45.588;5.276;2022-07-25T01:18:51;7.95;;;6.75;;
28252;SDS011;15515;45.588;5.276;2022-07-25T01:21:18;9.73;;;6.75;;
28252;SDS011;15515;45.588;5.276;2022-07-25T01:23:45;7.57;;;6.88;;
28252;SDS011;15515;45.588;5.276;2022-07-25T01:26:13;7.70;;;6.88;;
28252;SDS011;15515;45.588;5.276;2022-07-25T01:28:40;7.65;;;6.85;;
28252;SDS011;15515;45.588;5.276;2022-07-25T01:31:08;9.30;;;6.93;;
28252;SDS011;15515;45.588;5.276;2022-07-25T01:33:36;7.13;;;6.43;;
28252;SDS011;15515;45.588;5.276;2022-07-25T01:36:03;7.72;;;6.68;;
28252;SDS011;15515;45.588;5.276;2022-07-25T01:38:30;8.57;;;6.95;;
28252;SDS011;15515;45.588;5.276;2022-07-25T01:40:58;9.40;;;6.82;;
28252;SDS011;15515;45.588;5.276;2022-07-25T01:43:25;7.00;;;6.40;;
28252;SDS011;15515;45.588;5.276;2022-07-25T01:45:52;7.55;;;6.78;;
28252;SDS011;15515;45.588;5.276;2022-07-25T01:48:21;9.43;;;7.25;;
28252;SDS011;15515;45.588;5.276;2022-07-25T01:50:48;10.30;;;6.40;;
28252;SDS011;15515;45.588;5.276;2022-07-25T01:53:15;8.45;;;6.80;;
28252;SDS011;15515;45.588;5.276;2022-07-25T01:55:46;7.97;;;6.53;;
28252;SDS011;15515;45.588;5.276;2022-07-25T01:58:13;8.25;;;6.65;;
28252;SDS011;15515;45.588;5.276;2022-07-25T02:00:40;7.90;;;6.55;;
28252;SDS011;15515;45.588;5.276;2022-07-25T02:03:07;7.00;;;6.18;;
28252;SDS011;15515;45.588;5.276;2022-07-25T02:05:52;7.78;;;6.07;;
28252;SDS011;15515;45.588;5.276;2022-07-25T02:08:20;8.93;;;6.55;;
28252;SDS011;15515;45.588;5.276;2022-07-25T02:10:47;7.82;;;7.03;;
28252;SDS011;15515;45.588;5.276;2022-07-25T02:13:15;6.78;;;6.13;;
28252;SDS011;15515;45.588;5.276;2022-07-25T02:15:42;6.53;;;5.82;;
28252;SDS011;15515;45.588;5.276;2022-07-25T02:18:09;6.28;;;5.68;;
28252;SDS011;15515;45.588;5.276;2022-07-25T02:20:36;6.38;;;5.78;;
28252;SDS011;15515;45.588;5.276;2022-07-25T02:23:03;10.63;;;6.47;;
28252;SDS011;15515;45.588;5.276;2022-07-25T02:25:31;7.78;;;6.65;;
28252;SDS011;15515;45.588;5.276;2022-07-25T02:27:59;9.10;;;6.32;;
28252;SDS011;15515;45.588;5.276;2022-07-25T02:30:29;7.50;;;5.60;;
28252;SDS011;15515;45.588;5.276;2022-07-25T02:32:56;6.53;;;5.68;;
28252;SDS011;15515;45.588;5.276;2022-07-25T02:35:23;6.50;;;5.90;;
28252;SDS011;15515;45.588;5.276;2022-07-25T02:37:50;7.50;;;5.35;;
28252;SDS011;15515;45.588;5.276;2022-07-25T02:40:17;6.50;;;5.63;;
28252;SDS011;15515;45.588;5.276;2022-07-25T02:42:44;6.75;;;6.00;;
28252;SDS011;15515;45.588;5.276;2022-07-25T02:45:11;8.85;;;6.00;;
28252;SDS011;15515;45.588;5.276;2022-07-25T02:47:39;8.25;;;6.05;;
28252;SDS011;15515;45.588;5.276;2022-07-25T02:50:08;7.95;;;5.95;;
28252;SDS011;15515;45.588;5.276;2022-07-25T02:52:35;6.82;;;5.97;;
28252;SDS011;15515;45.588;5.276;2022-07-25T02:55:03;6.68;;;5.60;;
28252;SDS011;15515;45.588;5.276;2022-07-25T02:57:35;5.60;;;5.10;;
28252;SDS011;15515;45.588;5.276;2022-07-25T03:00:05;9.13;;;5.68;;
28252;SDS011;15515;45.588;5.276;2022-07-25T03:02:33;7.22;;;6.30;;
28252;SDS011;15515;45.588;5.276;2022-07-25T03:05:00;7.35;;;6.65;;
28252;SDS011;15515;45.588;5.276;2022-07-25T03:07:27;6.80;;;6.07;;
28252;SDS011;15515;45.588;5.276;2022-07-25T03:09:54;6.45;;;5.85;;
28252;SDS011;15515;45.588;5.276;2022-07-25T03:12:21;8.25;;;6.05;;
28252;SDS011;15515;45.588;5.276;2022-07-25T03:14:49;7.30;;;5.88;;
28252;SDS011;15515;45.588;5.276;2022-07-25T03:17:16;6.68;;;5.78;;
28252;SDS011;15515;45.588;5.276;2022-07-25T03:19:44;6.55;;;5.45;;
28252;SDS011;15515;45.588;5.276;2022-07-25T03:22:12;7.07;;;5.75;;
28252;SDS011;15515;45.588;5.276;2022-07-25T03:24:39;6.72;;;5.70;;
28252;SDS011;15515;45.588;5.276;2022-07-25T03:27:06;6.70;;;5.70;;
28252;SDS011;15515;45.588;5.276;2022-07-25T03:29:33;8.63;;;6.60;;
28252;SDS011;15515;45.588;5.276;2022-07-25T03:32:00;6.43;;;5.68;;
28252;SDS011;15515;45.588;5.276;2022-07-25T03:34:28;8.90;;;6.68;;
28252;SDS011;15515;45.588;5.276;2022-07-25T03:36:55;9.25;;;6.30;;
28252;SDS011;15515;45.588;5.276;2022-07-25T03:39:22;8.25;;;6.28;;
28252;SDS011;15515;45.588;5.276;2022-07-25T03:41:53;7.80;;;6.72;;
28252;SDS011;15515;45.588;5.276;2022-07-25T03:44:23;7.78;;;6.15;;
28252;SDS011;15515;45.588;5.276;2022-07-25T03:46:50;8.75;;;6.38;;
28252;SDS011;15515;45.588;5.276;2022-07-25T03:49:18;7.55;;;6.05;;
28252;SDS011;15515;45.588;5.276;2022-07-25T03:51:45;8.75;;;6.15;;
28252;SDS011;15515;45.588;5.276;2022-07-25T03:54:13;7.65;;;6.47;;
28252;SDS011;15515;45.588;5.276;2022-07-25T03:56:41;8.18;;;6.45;;
28252;SDS011;15515;45.588;5.276;2022-07-25T03:59:11;9.32;;;6.85;;
28252;SDS011;15515;45.588;5.276;2022-07-25T04:01:41;9.93;;;6.85;;
28252;SDS011;15515;45.588;5.276;2022-07-25T04:04:09;7.38;;;6.65;;
28252;SDS011;15515;45.588;5.276;2022-07-25T04:06:37;7.45;;;6.60;;
28252;SDS011;15515;45.588;5.276;2022-07-25T04:09:05;6.70;;;6.10;;
28252;SDS011;15515;45.588;5.276;2022-07-25T04:11:34;7.43;;;6.63;;
28252;SDS011;15515;45.588;5.276;2022-07-25T04:14:01;9.35;;;6.65;;
28252;SDS011;15515;45.588;5.276;2022-07-25T04:16:28;7.10;;;6.47;;
28252;SDS011;15515;45.588;5.276;2022-07-25T04:18:56;10.77;;;6.72;;
28252;SDS011;15515;45.588;5.276;2022-07-25T04:21:23;7.93;;;6.43;;
28252;SDS011;15515;45.588;5.276;2022-07-25T04:23:51;8.82;;;6.60;;
28252;SDS011;15515;45.588;5.276;2022-07-25T04:26:18;7.72;;;6.47;;
28252;SDS011;15515;45.588;5.276;2022-07-25T04:28:45;8.43;;;7.00;;
28252;SDS011;15515;45.588;5.276;2022-07-25T04:31:12;8.63;;;6.95;;
28252;SDS011;15515;45.588;5.276;2022-07-25T04:33:40;7.32;;;6.63;;
28252;SDS011;15515;45.588;5.276;2022-07-25T04:36:07;7.07;;;6.20;;
28252;SDS011;15515;45.588;5.276;2022-07-25T04:38:35;7.88;;;6.35;;
28252;SDS011;15515;45.588;5.276;2022-07-25T04:41:02;13.95;;;6.85;;
28252;SDS011;15515;45.588;5.276;2022-07-25T04:43:30;8.90;;;6.10;;
28252;SDS011;15515;45.588;5.276;2022-07-25T04:45:57;9.73;;;6.88;;
28252;SDS011;15515;45.588;5.276;2022-07-25T04:48:24;9.48;;;6.20;;
28252;SDS011;15515;45.588;5.276;2022-07-25T04:50:51;11.02;;;6.88;;
28252;SDS011;15515;45.588;5.276;2022-07-25T04:53:18;7.50;;;6.80;;
28252;SDS011;15515;45.588;5.276;2022-07-25T04:55:46;7.28;;;6.55;;
28252;SDS011;15515;45.588;5.276;2022-07-25T04:58:13;7.65;;;6.28;;
28252;SDS011;15515;45.588;5.276;2022-07-25T05:00:40;9.82;;;7.20;;
28252;SDS011;15515;45.588;5.276;2022-07-25T05:03:07;7.53;;;6.65;;
28252;SDS011;15515;45.588;5.276;2022-07-25T05:05:34;6.82;;;6.15;;
28252;SDS011;15515;45.588;5.276;2022-07-25T05:08:01;8.63;;;6.40;;
28252;SDS011;15515;45.588;5.276;2022-07-25T05:10:28;9.25;;;6.70;;
28252;SDS011;15515;45.588;5.276;2022-07-25T05:12:55;9.02;;;6.25;;
28252;SDS011;15515;45.588;5.276;2022-07-25T05:15:23;7.30;;;6.60;;
28252;SDS011;15515;45.588;5.276;2022-07-25T05:17:50;8.70;;;6.80;;
28252;SDS011;15515;45.588;5.276;2022-07-25T05:20:17;9.73;;;6.43;;
28252;SDS011;15515;45.588;5.276;2022-07-25T05:22:45;11.18;;;6.50;;
28252;SDS011;15515;45.588;5.276;2022-07-25T05:25:12;10.20;;;6.82;;
28252;SDS011;15515;45.588;5.276;2022-07-25T05:27:39;8.95;;;6.63;;
28252;SDS011;15515;45.588;5.276;2022-07-25T05:30:07;7.63;;;6.60;;
28252;SDS011;15515;45.588;5.276;2022-07-25T05:32:36;8.85;;;6.72;;
28252;SDS011;15515;45.588;5.276;2022-07-25T05:35:04;7.03;;;6.32;;
28252;SDS011;15515;45.588;5.276;2022-07-25T05:37:33;10.55;;;6.63;;
28252;SDS011;15515;45.588;5.276;2022-07-25T05:40:01;7.53;;;6.55;;
28252;SDS011;15515;45.588;5.276;2022-07-25T05:42:29;8.45;;;6.22;;
28252;SDS011;15515;45.588;5.276;2022-07-25T05:44:56;7.07;;;6.43;;
28252;SDS011;15515;45.588;5.276;2022-07-25T05:47:23;8.25;;;6.60;;
28252;SDS011;15515;45.588;5.276;2022-07-25T05:49:50;11.85;;;7.78;;
28252;SDS011;15515;45.588;5.276;2022-07-25T05:52:17;14.75;;;7.47;;
28252;SDS011;15515;45.588;5.276;2022-07-25T05:54:44;7.68;;;6.90;;
28252;SDS011;15515;45.588;5.276;2022-07-25T05:57:12;11.95;;;7.00;;
28252;SDS011;15515;45.588;5.276;2022-07-25T05:59:39;12.70;;;6.60;;
28252;SDS011;15515;45.588;5.276;2022-07-25T06:02:06;9.05;;;6.57;;
28252;SDS011;15515;45.588;5.276;2022-07-25T06:04:33;8.50;;;6.50;;
28252;SDS011;15515;45.588;5.276;2022-07-25T06:07:00;8.77;;;6.85;;
28252;SDS011;15515;45.588;5.276;2022-07-25T06:09:27;8.27;;;7.47;;
28252;SDS011;15515;45.588;5.276;2022-07-25T06:11:57;8.90;;;6.97;;
28252;SDS011;15515;45.588;5.276;2022-07-25T06:14:26;7.72;;;6.95;;
28252;SDS011;15515;45.588;5.276;2022-07-25T06:16:53;10.25;;;6.65;;
28252;SDS011;15515;45.588;5.276;2022-07-25T06:19:21;7.30;;;6.60;;
28252;SDS011;15515;45.588;5.276;2022-07-25T06:21:48;7.95;;;6.80;;
28252;SDS011;15515;45.588;5.276;2022-07-25T06:24:15;7.80;;;6.68;;
28252;SDS011;15515;45.588;5.276;2022-07-25T06:26:42;8.18;;;7.00;;
28252;SDS011;15515;45.588;5.276;2022-07-25T06:29:10;7.85;;;6.38;;
28252;SDS011;15515;45.588;5.276;2022-07-25T06:31:37;7.38;;;6.68;;
28252;SDS011;15515;45.588;5.276;2022-07-25T06:34:04;9.77;;;7.55;;
28252;SDS011;15515;45.588;5.276;2022-07-25T06:36:32;7.30;;;6.43;;
28252;SDS011;15515;45.588;5.276;2022-07-25T06:38:59;8.43;;;7.40;;
28252;SDS011;15515;45.588;5.276;2022-07-25T06:41:26;8.15;;;6.78;;
28252;SDS011;15515;45.588;5.276;2022-07-25T06:43:53;7.88;;;6.68;;
28252;SDS011;15515;45.588;5.276;2022-07-25T06:46:20;8.32;;;6.78;;
28252;SDS011;15515;45.588;5.276;2022-07-25T06:48:47;7.80;;;6.47;;
28252;SDS011;15515;45.588;5.276;2022-07-25T06:51:14;8.35;;;6.60;;
28252;SDS011;15515;45.588;5.276;2022-07-25T06:53:42;7.53;;;6.50;;
28252;SDS011;15515;45.588;5.276;2022-07-25T06:56:09;7.13;;;6.35;;
28252;SDS011;15515;45.588;5.276;2022-07-25T06:58:38;6.97;;;6.28;;
28252;SDS011;15515;45.588;5.276;2022-07-25T07:01:06;7.47;;;6.63;;
28252;SDS011;15515;45.588;5.276;2022-07-25T07:03:33;8.73;;;6.65;;
28252;SDS011;15515;45.588;5.276;2022-07-25T07:06:04;8.80;;;6.30;;
28252;SDS011;15515;45.588;5.276;2022-07-25T07:08:32;6.85;;;6.05;;
28252;SDS011;15515;45.588;5.276;2022-07-25T07:11:00;8.35;;;6.65;;
28252;SDS011;15515;45.588;5.276;2022-07-25T07:13:27;7.55;;;6.20;;
28252;SDS011;15515;45.588;5.276;2022-07-25T07:15:55;8.98;;;6.90;;
28252;SDS011;15515;45.588;5.276;2022-07-25T07:18:22;7.13;;;6.50;;
28252;SDS011;15515;45.588;5.276;2022-07-25T07:20:49;6.43;;;5.78;;
28252;SDS011;15515;45.588;5.276;2022-07-25T07:23:17;12.30;;;6.50;;
28252;SDS011;15515;45.588;5.276;2022-07-25T07:25:44;6.95;;;6.22;;
28252;SDS011;15515;45.588;5.276;2022-07-25T07:28:12;8.95;;;6.43;;
28252;SDS011;15515;45.588;5.276;2022-07-25T07:30:41;7.78;;;5.97;;
28252;SDS011;15515;45.588;5.276;2022-07-25T07:33:28;9.60;;;6.30;;
28252;SDS011;15515;45.588;5.276;2022-07-25T07:35:55;8.25;;;6.22;;
28252;SDS011;15515;45.588;5.276;2022-07-25T07:38:23;10.85;;;6.32;;
28252;SDS011;15515;45.588;5.276;2022-07-25T07:40:51;10.30;;;6.35;;
28252;SDS011;15515;45.588;5.276;2022-07-25T07:43:21;13.63;;;5.70;;
28252;SDS011;15515;45.588;5.276;2022-07-25T07:45:52;6.78;;;5.90;;
28252;SDS011;15515;45.588;5.276;2022-07-25T07:48:21;7.35;;;5.70;;
28252;SDS011;15515;45.588;5.276;2022-07-25T07:50:48;9.73;;;6.05;;
28252;SDS011;15515;45.588;5.276;2022-07-25T07:53:15;7.90;;;6.07;;
28252;SDS011;15515;45.588;5.276;2022-07-25T07:55:42;11.00;;;6.00;;
28252;SDS011;15515;45.588;5.276;2022-07-25T07:58:11;7.20;;;6.00;;
28252;SDS011;15515;45.588;5.276;2022-07-25T08:00:44;7.63;;;5.32;;
28252;SDS011;15515;45.588;5.276;2022-07-25T08:03:16;7.95;;;6.25;;
28252;SDS011;15515;45.588;5.276;2022-07-25T08:05:47;6.75;;;6.10;;
28252;SDS011;15515;45.588;5.276;2022-07-25T08:08:15;6.82;;;5.88;;
28252;SDS011;15515;45.588;5.276;2022-07-25T08:10:43;6.72;;;6.00;;
28252;SDS011;15515;45.588;5.276;2022-07-25T08:13:15;15.95;;;6.85;;
28252;SDS011;15515;45.588;5.276;2022-07-25T08:15:46;10.15;;;5.78;;
28252;SDS011;15515;45.588;5.276;2022-07-25T08:18:14;6.85;;;5.55;;
28252;SDS011;15515;45.588;5.276;2022-07-25T08:20:41;8.27;;;5.95;;
28252;SDS011;15515;45.588;5.276;2022-07-25T08:23:08;8.48;;;5.85;;
28252;SDS011;15515;45.588;5.276;2022-07-25T08:25:38;8.38;;;6.00;;
28252;SDS011;15515;45.588;5.276;2022-07-25T08:28:06;9.52;;;5.53;;
28252;SDS011;15515;45.588;5.276;2022-07-25T08:30:34;6.63;;;5.55;;
28252;SDS011;15515;45.588;5.276;2022-07-25T08:33:03;7.85;;;5.55;;
28252;SDS011;15515;45.588;5.276;2022-07-25T08:35:32;8.40;;;5.50;;
28252;SDS011;15515;45.588;5.276;2022-07-25T08:38:00;7.68;;;5.90;;
28252;SDS011;15515;45.588;5.276;2022-07-25T08:40:28;10.18;;;6.10;;
28252;SDS011;15515;45.588;5.276;2022-07-25T08:42:57;11.02;;;5.65;;
28252;SDS011;15515;45.588;5.276;2022-07-25T08:45:25;8.27;;;6.20;;
28252;SDS011;15515;45.588;5.276;2022-07-25T08:47:54;6.40;;;5.47;;
28252;SDS011;15515;45.588;5.276;2022-07-25T08:50:26;7.60;;;5.60;;
28252;SDS011;15515;45.588;5.276;2022-07-25T08:52:54;9.75;;;6.88;;
28252;SDS011;15515;45.588;5.276;2022-07-25T08:55:35;10.45;;;5.30;;
28252;SDS011;15515;45.588;5.276;2022-07-25T08:58:02;9.88;;;5.70;;
28252;SDS011;15515;45.588;5.276;2022-07-25T09:00:29;5.75;;;5.20;;
28252;SDS011;15515;45.588;5.276;2022-07-25T09:02:57;8.68;;;5.55;;
28252;SDS011;15515;45.588;5.276;2022-07-25T09:05:26;8.07;;;5.38;;
28252;SDS011;15515;45.588;5.276;2022-07-25T09:07:56;11.38;;;5.47;;
28252;SDS011;15515;45.588;5.276;2022-07-25T09:10:25;9.48;;;5.57;;
28252;SDS011;15515;45.588;5.276;2022-07-25T09:13:00;7.13;;;5.30;;
28252;SDS011;15515;45.588;5.276;2022-07-25T09:15:33;9.82;;;5.93;;
28252;SDS011;15515;45.588;5.276;2022-07-25T09:18:03;8.02;;;5.20;;
28252;SDS011;15515;45.588;5.276;2022-07-25T09:20:39;6.82;;;5.28;;
28252;SDS011;15515;45.588;5.276;2022-07-25T09:23:07;10.43;;;5.28;;
28252;SDS011;15515;45.588;5.276;2022-07-25T09:25:34;9.02;;;5.40;;
28252;SDS011;15515;45.588;5.276;2022-07-25T09:28:09;7.88;;;5.43;;
28252;SDS011;15515;45.588;5.276;2022-07-25T09:30:51;10.43;;;5.53;;
28252;SDS011;15515;45.588;5.276;2022-07-25T09:33:23;5.88;;;5.38;;
28252;SDS011;15515;45.588;5.276;2022-07-25T09:35:51;8.40;;;5.30;;
28252;SDS011;15515;45.588;5.276;2022-07-25T09:38:19;5.82;;;4.55;;
28252;SDS011;15515;45.588;5.276;2022-07-25T09:40:54;6.60;;;5.22;;
28252;SDS011;15515;45.588;5.276;2022-07-25T09:43:39;6.30;;;5.50;;
28252;SDS011;15515;45.588;5.276;2022-07-25T09:46:08;6.40;;;5.78;;
28252;SDS011;15515;45.588;5.276;2022-07-25T09:48:37;6.03;;;5.20;;
28252;SDS011;15515;45.588;5.276;2022-07-25T09:51:05;5.65;;;5.10;;
28252;SDS011;15515;45.588;5.276;2022-07-25T09:53:33;7.78;;;5.07;;
28252;SDS011;15515;45.588;5.276;2022-07-25T09:56:00;6.40;;;5.28;;
28252;SDS011;15515;45.588;5.276;2022-07-25T09:58:28;6.35;;;4.57;;
28252;SDS011;15515;45.588;5.276;2022-07-25T10:00:59;5.57;;;5.10;;
28252;SDS011;15515;45.588;5.276;2022-07-25T10:08:35;5.85;;;5.35;;
28252;SDS011;15515;45.588;5.276;2022-07-25T10:11:04;8.27;;;5.05;;
28252;SDS011;15515;45.588;5.276;2022-07-25T10:13:32;8.80;;;5.32;;
28252;SDS011;15515;45.588;5.276;2022-07-25T10:16:01;8.95;;;5.43;;
28252;SDS011;15515;45.588;5.276;2022-07-25T10:18:45;6.10;;;5.28;;
28252;SDS011;15515;45.588;5.276;2022-07-25T10:21:17;6.10;;;5.40;;
28252;SDS011;15515;45.588;5.276;2022-07-25T10:23:57;5.40;;;4.80;;
28252;SDS011;15515;45.588;5.276;2022-07-25T10:26:32;5.30;;;4.80;;
28252;SDS011;15515;45.588;5.276;2022-07-25T10:29:05;6.03;;;5.10;;
28252;SDS011;15515;45.588;5.276;2022-07-25T10:31:35;6.53;;;5.45;;
28252;SDS011;15515;45.588;5.276;2022-07-25T10:34:07;6.72;;;5.93;;
28252;SDS011;15515;45.588;5.276;2022-07-25T10:36:46;9.07;;;5.63;;
28252;SDS011;15515;45.588;5.276;2022-07-25T10:39:17;5.88;;;5.28;;
28252;SDS011;15515;45.588;5.276;2022-07-25T10:41:57;10.18;;;5.75;;
28252;SDS011;15515;45.588;5.276;2022-07-25T10:44:31;7.55;;;5.47;;
28252;SDS011;15515;45.588;5.276;2022-07-25T10:47:10;7.32;;;5.75;;
28252;SDS011;15515;45.588;5.276;2022-07-25T10:49:39;5.80;;;5.30;;
28252;SDS011;15515;45.588;5.276;2022-07-25T10:52:20;6.50;;;6.00;;
28252;SDS011;15515;45.588;5.276;2022-07-25T10:57:24;6.55;;;5.88;;
28252;SDS011;15515;45.588;5.276;2022-07-25T11:00:03;6.10;;;5.60;;
28252;SDS011;15515;45.588;5.276;2022-07-25T11:02:31;6.30;;;5.70;;
28252;SDS011;15515;45.588;5.276;2022-07-25T11:04:59;8.13;;;6.10;;
28252;SDS011;15515;45.588;5.276;2022-07-25T11:07:28;7.00;;;6.05;;
28252;SDS011;15515;45.588;5.276;2022-07-25T11:10:02;7.15;;;6.40;;
28252;SDS011;15515;45.588;5.276;2022-07-25T11:12:31;6.78;;;6.18;;
28252;SDS011;15515;45.588;5.276;2022-07-25T11:14:59;7.97;;;6.18;;
28252;SDS011;15515;45.588;5.276;2022-07-25T11:17:29;6.72;;;5.85;;
28252;SDS011;15515;45.588;5.276;2022-07-25T11:22:27;9.02;;;6.53;;
28252;SDS011;15515;45.588;5.276;2022-07-25T11:24:56;7.30;;;5.90;;
28252;SDS011;15515;45.588;5.276;2022-07-25T11:27:24;7.53;;;5.70;;
28252;SDS011;15515;45.588;5.276;2022-07-25T11:30:08;8.55;;;6.10;;
28252;SDS011;15515;45.588;5.276;2022-07-25T11:35:08;10.88;;;7.18;;
28252;SDS011;15515;45.588;5.276;2022-07-25T11:37:36;6.03;;;5.43;;
28252;SDS011;15515;45.588;5.276;2022-07-25T11:40:06;7.60;;;5.75;;
28252;SDS011;15515;45.588;5.276;2022-07-25T11:42:53;7.47;;;5.93;;
28252;SDS011;15515;45.588;5.276;2022-07-25T11:50:35;6.32;;;5.72;;
28252;SDS011;15515;45.588;5.276;2022-07-25T11:53:05;11.23;;;6.40;;
28252;SDS011;15515;45.588;5.276;2022-07-25T11:55:34;9.77;;;6.70;;
28252;SDS011;15515;45.588;5.276;2022-07-25T11:58:05;8.83;;;5.40;;
28252;SDS011;15515;45.588;5.276;2022-07-25T12:00:33;7.05;;;6.35;;
28252;SDS011;15515;45.588;5.276;2022-07-25T12:03:12;7.63;;;6.18;;
28252;SDS011;15515;45.588;5.276;2022-07-25T12:05:44;6.43;;;5.80;;
28252;SDS011;15515;45.588;5.276;2022-07-25T12:08:16;7.10;;;6.20;;
28252;SDS011;15515;45.588;5.276;2022-07-25T12:13:22;8.23;;;6.45;;
28252;SDS011;15515;45.588;5.276;2022-07-25T12:15:55;9.32;;;6.43;;
28252;SDS011;15515;45.588;5.276;2022-07-25T12:18:24;6.97;;;6.15;;
28252;SDS011;15515;45.588;5.276;2022-07-25T12:20:52;6.28;;;5.78;;
28252;SDS011;15515;45.588;5.276;2022-07-25T12:23:19;6.65;;;6.05;;
28252;SDS011;15515;45.588;5.276;2022-07-25T12:25:49;7.45;;;6.55;;
28252;SDS011;15515;45.588;5.276;2022-07-25T12:28:16;9.70;;;6.47;;
28252;SDS011;15515;45.588;5.276;2022-07-25T12:30:44;6.65;;;6.05;;
28252;SDS011;15515;45.588;5.276;2022-07-25T12:33:12;6.88;;;6.20;;
28252;SDS011;15515;45.588;5.276;2022-07-25T12:35:40;6.95;;;6.10;;
28252;SDS011;15515;45.588;5.276;2022-07-25T12:38:08;6.90;;;6.22;;
28252;SDS011;15515;45.588;5.276;2022-07-25T12:40:36;8.05;;;6.32;;
28252;SDS011;15515;45.588;5.276;2022-07-25T12:43:03;7.25;;;6.05;;
28252;SDS011;15515;45.588;5.276;2022-07-25T12:45:31;8.48;;;6.38;;
28252;SDS011;15515;45.588;5.276;2022-07-25T12:47:58;6.00;;;5.47;;
28252;SDS011;15515;45.588;5.276;2022-07-25T12:50:25;8.98;;;6.63;;
28252;SDS011;15515;45.588;5.276;2022-07-25T12:52:52;7.10;;;6.50;;
28252;SDS011;15515;45.588;5.276;2022-07-25T12:55:20;9.75;;;6.18;;
28252;SDS011;15515;45.588;5.276;2022-07-25T12:57:47;9.98;;;6.10;;
28252;SDS011;15515;45.588;5.276;2022-07-25T13:00:16;6.18;;;5.68;;
28252;SDS011;15515;45.588;5.276;2022-07-25T13:02:44;6.45;;;5.85;;
28252;SDS011;15515;45.588;5.276;2022-07-25T13:05:13;7.65;;;6.95;;
28252;SDS011;15515;45.588;5.276;2022-07-25T13:07:40;10.45;;;6.78;;
28252;SDS011;15515;45.588;5.276;2022-07-25T13:10:08;7.45;;;5.35;;
28252;SDS011;15515;45.588;5.276;2022-07-25T13:12:36;6.97;;;5.68;;
28252;SDS011;15515;45.588;5.276;2022-07-25T13:15:04;7.13;;;5.25;;
28252;SDS011;15515;45.588;5.276;2022-07-25T13:17:31;12.80;;;5.63;;
28252;SDS011;15515;45.588;5.276;2022-07-25T13:20:00;7.05;;;5.28;;
28252;SDS011;15515;45.588;5.276;2022-07-25T13:22:27;8.00;;;5.30;;
28252;SDS011;15515;45.588;5.276;2022-07-25T13:24:54;7.75;;;4.45;;
28252;SDS011;15515;45.588;5.276;2022-07-25T13:27:22;7.32;;;4.63;;
28252;SDS011;15515;45.588;5.276;2022-07-25T13:29:49;5.63;;;4.88;;
28252;SDS011;15515;45.588;5.276;2022-07-25T13:32:20;9.13;;;4.63;;
28252;SDS011;15515;45.588;5.276;2022-07-25T13:34:47;7.90;;;4.93;;
28252;SDS011;15515;45.588;5.276;2022-07-25T13:37:14;5.00;;;4.47;;
28252;SDS011;15515;45.588;5.276;2022-07-25T13:39:41;9.13;;;4.90;;
28252;SDS011;15515;45.588;5.276;2022-07-25T13:42:09;6.07;;;4.63;;
28252;SDS011;15515;45.588;5.276;2022-07-25T13:44:36;5.95;;;4.78;;
28252;SDS011;15515;45.588;5.276;2022-07-25T13:47:03;4.75;;;4.25;;
28252;SDS011;15515;45.588;5.276;2022-07-25T13:49:31;5.20;;;4.60;;
28252;SDS011;15515;45.588;5.276;2022-07-25T13:51:58;4.95;;;4.55;;
28252;SDS011;15515;45.588;5.276;2022-07-25T13:54:25;5.07;;;4.57;;
28252;SDS011;15515;45.588;5.276;2022-07-25T13:56:52;6.80;;;5.25;;
28252;SDS011;15515;45.588;5.276;2022-07-25T13:59:19;6.97;;;4.38;;
28252;SDS011;15515;45.588;5.276;2022-07-25T14:01:46;5.03;;;4.53;;
28252;SDS011;15515;45.588;5.276;2022-07-25T14:04:14;5.68;;;4.32;;
28252;SDS011;15515;45.588;5.276;2022-07-25T14:06:41;8.02;;;4.93;;
28252;SDS011;15515;45.588;5.276;2022-07-25T14:09:09;7.28;;;4.85;;
28252;SDS011;15515;45.588;5.276;2022-07-25T14:11:36;9.10;;;5.05;;
28252;SDS011;15515;45.588;5.276;2022-07-25T14:14:03;5.43;;;4.88;;
28252;SDS011;15515;45.588;5.276;2022-07-25T14:16:31;8.18;;;4.82;;
28252;SDS011;15515;45.588;5.276;2022-07-25T14:18:59;5.13;;;4.47;;
28252;SDS011;15515;45.588;5.276;2022-07-25T14:21:26;9.65;;;5.03;;
28252;SDS011;15515;45.588;5.276;2022-07-25T14:23:53;5.57;;;4.82;;
28252;SDS011;15515;45.588;5.276;2022-07-25T14:26:20;8.52;;;5.00;;
28252;SDS011;15515;45.588;5.276;2022-07-25T14:28:47;5.15;;;4.22;;
28252;SDS011;15515;45.588;5.276;2022-07-25T14:31:14;6.75;;;4.88;;
28252;SDS011;15515;45.588;5.276;2022-07-25T14:33:41;8.48;;;4.35;;
28252;SDS011;15515;45.588;5.276;2022-07-25T14:36:09;6.30;;;4.43;;
28252;SDS011;15515;45.588;5.276;2022-07-25T14:38:36;7.20;;;4.70;;
28252;SDS011;15515;45.588;5.276;2022-07-25T14:41:03;5.32;;;4.80;;
28252;SDS011;15515;45.588;5.276;2022-07-25T14:43:34;4.50;;;4.07;;
28252;SDS011;15515;45.588;5.276;2022-07-25T14:46:01;4.60;;;4.20;;
28252;SDS011;15515;45.588;5.276;2022-07-25T14:48:28;5.45;;;4.70;;
28252;SDS011;15515;45.588;5.276;2022-07-25T14:50:55;5.13;;;4.47;;
28252;SDS011;15515;45.588;5.276;2022-07-25T14:53:22;7.65;;;5.07;;
28252;SDS011;15515;45.588;5.276;2022-07-25T14:55:49;6.43;;;4.40;;
28252;SDS011;15515;45.588;5.276;2022-07-25T14:58:16;5.72;;;4.25;;
28252;SDS011;15515;45.588;5.276;2022-07-25T15:00:43;7.57;;;4.47;;
28252;SDS011;15515;45.588;5.276;2022-07-25T15:03:11;4.55;;;4.13;;
28252;SDS011;15515;45.588;5.276;2022-07-25T15:05:40;7.68;;;4.40;;
28252;SDS011;15515;45.588;5.276;2022-07-25T15:08:08;6.38;;;4.18;;
28252;SDS011;15515;45.588;5.276;2022-07-25T15:10:37;5.38;;;4.28;;
28252;SDS011;15515;45.588;5.276;2022-07-25T15:13:04;6.22;;;4.60;;